sensor_id;sensor_type;location;lat;lon;timestamp;temperature;humidity
39925;DHT22;25592;49.986;11.618;2023-08-24T00:01:02;23.70;81.10
39925;DHT22;25592;49.986;11.618;2023-08-24T00:03:48;23.60;81.10
39925;DHT22;25592;49.986;11.618;2023-08-24T00:06:33;23.60;81.20
39925;DHT22;25592;49.986;11.618;2023-08-24T00:09:19;23.60;81.20
39925;DHT22;25592;49.986;11.618;2023-08-24T00:12:04;23.50;81.50
39925;DHT22;25592;49.986;11.618;2023-08-24T00:14:50;23.40;81.80
39925;DHT22;25592;49.986;11.618;2023-08-24T00:17:37;23.40;81.80
39925;DHT22;25592;49.986;11.618;2023-08-24T00:20:22;23.50;81.50
39925;DHT22;25592;49.986;11.618;2023-08-24T00:23:08;23.50;81.30
39925;DHT22;25592;49.986;11.618;2023-08-24T00:25:54;23.50;81.20
39925;DHT22;25592;49.986;11.618;2023-08-24T00:28:39;23.50;81.10
39925;DHT22;25592;49.986;11.618;2023-08-24T00:31:25;23.50;81.30
39925;DHT22;25592;49.986;11.618;2023-08-24T00:34:11;23.40;81.30
39925;DHT22;25592;49.986;11.618;2023-08-24T00:36:56;23.40;81.50
39925;DHT22;25592;49.986;11.618;2023-08-24T00:39:41;23.40;81.40
39925;DHT22;25592;49.986;11.618;2023-08-24T00:42:27;23.30;81.20
39925;DHT22;25592;49.986;11.618;2023-08-24T00:45:13;23.40;81.40
39925;DHT22;25592;49.986;11.618;2023-08-24T00:47:59;23.30;81.20
39925;DHT22;25592;49.986;11.618;2023-08-24T00:50:44;23.20;81.70
39925;DHT22;25592;49.986;11.618;2023-08-24T00:53:30;23.20;81.70
39925;DHT22;25592;49.986;11.618;2023-08-24T00:56:15;23.10;81.90
39925;DHT22;25592;49.986;11.618;2023-08-24T00:59:01;23.10;81.90
39925;DHT22;25592;49.986;11.618;2023-08-24T01:01:47;23.00;82.10
39925;DHT22;25592;49.986;11.618;2023-08-24T01:04:32;23.00;82.10
39925;DHT22;25592;49.986;11.618;2023-08-24T01:07:18;23.00;82.20
39925;DHT22;25592;49.986;11.618;2023-08-24T01:10:04;22.90;82.10
39925;DHT22;25592;49.986;11.618;2023-08-24T01:13:10;22.90;82.50
39925;DHT22;25592;49.986;11.618;2023-08-24T01:16:08;23.00;82.40
39925;DHT22;25592;49.986;11.618;2023-08-24T01:18:56;22.90;82.30
39925;DHT22;25592;49.986;11.618;2023-08-24T01:21:42;22.90;82.20
39925;DHT22;25592;49.986;11.618;2023-08-24T01:24:44;22.90;82.20
39925;DHT22;25592;49.986;11.618;2023-08-24T01:27:32;22.80;82.50
39925;DHT22;25592;49.986;11.618;2023-08-24T01:30:20;22.80;82.30
39925;DHT22;25592;49.986;11.618;2023-08-24T01:33:05;22.80;82.40
39925;DHT22;25592;49.986;11.618;2023-08-24T01:35:51;22.80;82.60
39925;DHT22;25592;49.986;11.618;2023-08-24T01:38:37;22.80;82.40
39925;DHT22;25592;49.986;11.618;2023-08-24T01:41:26;22.70;82.40
39925;DHT22;25592;49.986;11.618;2023-08-24T01:44:15;22.70;82.50
39925;DHT22;25592;49.986;11.618;2023-08-24T01:47:03;22.60;82.50
39925;DHT22;25592;49.986;11.618;2023-08-24T01:49:50;22.50;82.70
39925;DHT22;25592;49.986;11.618;2023-08-24T01:52:36;22.60;82.70
39925;DHT22;25592;49.986;11.618;2023-08-24T01:55:21;22.50;82.80
39925;DHT22;25592;49.986;11.618;2023-08-24T01:58:08;22.50;82.70
39925;DHT22;25592;49.986;11.618;2023-08-24T02:00:53;22.50;82.80
39925;DHT22;25592;49.986;11.618;2023-08-24T02:03:38;22.40;82.70
39925;DHT22;25592;49.986;11.618;2023-08-24T02:06:25;22.40;83.00
39925;DHT22;25592;49.986;11.618;2023-08-24T02:09:11;22.40;83.00
39925;DHT22;25592;49.986;11.618;2023-08-24T02:11:57;22.40;82.90
39925;DHT22;25592;49.986;11.618;2023-08-24T02:14:42;22.40;83.10
39925;DHT22;25592;49.986;11.618;2023-08-24T02:17:28;22.40;82.90
39925;DHT22;25592;49.986;11.618;2023-08-24T02:20:13;22.30;83.10
39925;DHT22;25592;49.986;11.618;2023-08-24T02:22:58;22.30;83.20
39925;DHT22;25592;49.986;11.618;2023-08-24T02:25:44;22.30;83.20
39925;DHT22;25592;49.986;11.618;2023-08-24T02:28:29;22.30;83.20
39925;DHT22;25592;49.986;11.618;2023-08-24T02:31:15;22.20;83.10
39925;DHT22;25592;49.986;11.618;2023-08-24T02:34:01;22.20;83.10
39925;DHT22;25592;49.986;11.618;2023-08-24T02:36:47;22.10;83.30
39925;DHT22;25592;49.986;11.618;2023-08-24T02:39:32;22.10;83.30
39925;DHT22;25592;49.986;11.618;2023-08-24T02:42:18;22.10;83.10
39925;DHT22;25592;49.986;11.618;2023-08-24T02:45:04;22.10;83.20
39925;DHT22;25592;49.986;11.618;2023-08-24T02:47:49;22.10;83.50
39925;DHT22;25592;49.986;11.618;2023-08-24T02:50:35;21.90;84.00
39925;DHT22;25592;49.986;11.618;2023-08-24T02:53:20;21.90;83.80
39925;DHT22;25592;49.986;11.618;2023-08-24T02:56:06;22.00;83.70
39925;DHT22;25592;49.986;11.618;2023-08-24T02:58:52;22.00;83.40
39925;DHT22;25592;49.986;11.618;2023-08-24T03:01:37;22.00;83.50
39925;DHT22;25592;49.986;11.618;2023-08-24T03:04:23;22.00;83.60
39925;DHT22;25592;49.986;11.618;2023-08-24T03:07:09;22.00;83.60
39925;DHT22;25592;49.986;11.618;2023-08-24T03:09:55;21.90;83.80
39925;DHT22;25592;49.986;11.618;2023-08-24T03:12:41;21.90;83.60
39925;DHT22;25592;49.986;11.618;2023-08-24T03:15:26;22.00;83.70
39925;DHT22;25592;49.986;11.618;2023-08-24T03:18:13;21.90;83.50
39925;DHT22;25592;49.986;11.618;2023-08-24T03:20:59;21.90;83.60
39925;DHT22;25592;49.986;11.618;2023-08-24T03:23:44;21.80;83.60
39925;DHT22;25592;49.986;11.618;2023-08-24T03:26:30;21.80;83.50
39925;DHT22;25592;49.986;11.618;2023-08-24T03:29:16;21.80;83.90
39925;DHT22;25592;49.986;11.618;2023-08-24T03:32:01;21.80;83.70
39925;DHT22;25592;49.986;11.618;2023-08-24T03:34:47;21.80;83.80
39925;DHT22;25592;49.986;11.618;2023-08-24T03:37:32;21.80;83.80
39925;DHT22;25592;49.986;11.618;2023-08-24T03:40:18;21.70;84.00
39925;DHT22;25592;49.986;11.618;2023-08-24T03:43:03;21.60;84.30
39925;DHT22;25592;49.986;11.618;2023-08-24T03:45:48;21.60;84.30
39925;DHT22;25592;49.986;11.618;2023-08-24T03:48:34;21.60;84.00
39925;DHT22;25592;49.986;11.618;2023-08-24T03:51:20;21.60;84.10
39925;DHT22;25592;49.986;11.618;2023-08-24T03:54:05;21.50;84.30
39925;DHT22;25592;49.986;11.618;2023-08-24T03:56:50;21.50;84.40
39925;DHT22;25592;49.986;11.618;2023-08-24T03:59:36;21.50;84.90
39925;DHT22;25592;49.986;11.618;2023-08-24T04:02:21;21.50;84.30
39925;DHT22;25592;49.986;11.618;2023-08-24T04:05:07;21.50;84.30
39925;DHT22;25592;49.986;11.618;2023-08-24T04:07:52;21.50;84.30
39925;DHT22;25592;49.986;11.618;2023-08-24T04:10:38;21.40;84.60
39925;DHT22;25592;49.986;11.618;2023-08-24T04:13:23;21.40;84.80
39925;DHT22;25592;49.986;11.618;2023-08-24T04:16:09;21.40;84.90
39925;DHT22;25592;49.986;11.618;2023-08-24T04:18:54;21.40;84.70
39925;DHT22;25592;49.986;11.618;2023-08-24T04:21:40;21.40;84.70
39925;DHT22;25592;49.986;11.618;2023-08-24T04:24:25;21.50;84.60
39925;DHT22;25592;49.986;11.618;2023-08-24T04:27:11;21.50;84.60
39925;DHT22;25592;49.986;11.618;2023-08-24T04:29:56;21.40;84.70
39925;DHT22;25592;49.986;11.618;2023-08-24T04:32:42;21.40;84.90
39925;DHT22;25592;49.986;11.618;2023-08-24T04:35:28;21.30;85.00
39925;DHT22;25592;49.986;11.618;2023-08-24T04:38:13;21.40;84.90
39925;DHT22;25592;49.986;11.618;2023-08-24T04:40:59;21.40;85.10
39925;DHT22;25592;49.986;11.618;2023-08-24T04:43:44;21.40;85.20
39925;DHT22;25592;49.986;11.618;2023-08-24T04:46:30;21.30;85.70
39925;DHT22;25592;49.986;11.618;2023-08-24T04:49:15;21.20;85.80
39925;DHT22;25592;49.986;11.618;2023-08-24T04:52:00;21.20;85.70
39925;DHT22;25592;49.986;11.618;2023-08-24T04:54:46;21.40;85.60
39925;DHT22;25592;49.986;11.618;2023-08-24T04:57:32;21.30;85.80
39925;DHT22;25592;49.986;11.618;2023-08-24T05:00:17;21.20;86.20
39925;DHT22;25592;49.986;11.618;2023-08-24T05:03:04;21.20;86.20
39925;DHT22;25592;49.986;11.618;2023-08-24T05:05:50;21.20;86.50
39925;DHT22;25592;49.986;11.618;2023-08-24T05:08:35;21.20;86.30
39925;DHT22;25592;49.986;11.618;2023-08-24T05:11:23;21.30;86.20
39925;DHT22;25592;49.986;11.618;2023-08-24T05:14:12;21.40;86.10
39925;DHT22;25592;49.986;11.618;2023-08-24T05:16:59;21.30;86.40
39925;DHT22;25592;49.986;11.618;2023-08-24T05:19:44;21.40;86.80
39925;DHT22;25592;49.986;11.618;2023-08-24T05:22:30;21.30;86.60
39925;DHT22;25592;49.986;11.618;2023-08-24T05:25:15;21.40;86.80
39925;DHT22;25592;49.986;11.618;2023-08-24T05:28:02;21.40;87.10
39925;DHT22;25592;49.986;11.618;2023-08-24T05:30:48;21.40;87.10
39925;DHT22;25592;49.986;11.618;2023-08-24T05:33:34;21.40;87.00
39925;DHT22;25592;49.986;11.618;2023-08-24T05:36:19;21.50;87.10
39925;DHT22;25592;49.986;11.618;2023-08-24T05:39:04;21.50;87.10
39925;DHT22;25592;49.986;11.618;2023-08-24T05:41:51;21.40;87.10
39925;DHT22;25592;49.986;11.618;2023-08-24T05:44:37;21.50;87.10
39925;DHT22;25592;49.986;11.618;2023-08-24T05:47:23;21.50;87.40
39925;DHT22;25592;49.986;11.618;2023-08-24T05:50:08;21.50;87.70
39925;DHT22;25592;49.986;11.618;2023-08-24T05:52:54;21.60;87.50
39925;DHT22;25592;49.986;11.618;2023-08-24T05:55:39;21.60;87.40
39925;DHT22;25592;49.986;11.618;2023-08-24T05:58:25;21.60;87.40
39925;DHT22;25592;49.986;11.618;2023-08-24T06:01:10;21.60;87.50
39925;DHT22;25592;49.986;11.618;2023-08-24T06:03:56;21.70;87.10
39925;DHT22;25592;49.986;11.618;2023-08-24T06:06:41;21.70;87.00
39925;DHT22;25592;49.986;11.618;2023-08-24T06:09:27;21.70;86.70
39925;DHT22;25592;49.986;11.618;2023-08-24T06:12:12;21.90;86.90
39925;DHT22;25592;49.986;11.618;2023-08-24T06:14:58;21.80;87.90
39925;DHT22;25592;49.986;11.618;2023-08-24T06:17:43;21.70;87.50
39925;DHT22;25592;49.986;11.618;2023-08-24T06:20:29;21.70;87.90
39925;DHT22;25592;49.986;11.618;2023-08-24T06:23:16;21.80;87.40
39925;DHT22;25592;49.986;11.618;2023-08-24T06:26:01;21.90;87.40
39925;DHT22;25592;49.986;11.618;2023-08-24T06:28:47;21.80;87.00
39925;DHT22;25592;49.986;11.618;2023-08-24T06:31:32;21.70;87.30
39925;DHT22;25592;49.986;11.618;2023-08-24T06:34:18;21.90;87.10
39925;DHT22;25592;49.986;11.618;2023-08-24T06:37:03;22.00;87.40
39925;DHT22;25592;49.986;11.618;2023-08-24T06:39:49;22.00;87.20
39925;DHT22;25592;49.986;11.618;2023-08-24T06:42:34;22.10;87.00
39925;DHT22;25592;49.986;11.618;2023-08-24T06:45:20;22.20;87.60
39925;DHT22;25592;49.986;11.618;2023-08-24T06:48:05;22.20;87.10
39925;DHT22;25592;49.986;11.618;2023-08-24T06:50:52;22.30;87.00
39925;DHT22;25592;49.986;11.618;2023-08-24T06:53:38;22.40;86.20
39925;DHT22;25592;49.986;11.618;2023-08-24T06:56:23;22.40;88.00
39925;DHT22;25592;49.986;11.618;2023-08-24T06:59:08;22.50;87.30
39925;DHT22;25592;49.986;11.618;2023-08-24T07:01:54;22.60;87.00
39925;DHT22;25592;49.986;11.618;2023-08-24T07:04:40;22.60;87.40
39925;DHT22;25592;49.986;11.618;2023-08-24T07:07:25;22.70;87.10
39925;DHT22;25592;49.986;11.618;2023-08-24T07:10:11;22.80;87.30
39925;DHT22;25592;49.986;11.618;2023-08-24T07:12:56;22.90;88.40
39925;DHT22;25592;49.986;11.618;2023-08-24T07:15:42;22.90;88.00
39925;DHT22;25592;49.986;11.618;2023-08-24T07:18:28;22.90;87.40
39925;DHT22;25592;49.986;11.618;2023-08-24T07:21:13;22.90;88.00
39925;DHT22;25592;49.986;11.618;2023-08-24T07:24:00;23.00;88.20
39925;DHT22;25592;49.986;11.618;2023-08-24T07:26:45;23.00;88.70
39925;DHT22;25592;49.986;11.618;2023-08-24T07:29:31;23.10;89.30
39925;DHT22;25592;49.986;11.618;2023-08-24T07:32:17;23.10;89.90
39925;DHT22;25592;49.986;11.618;2023-08-24T07:35:02;23.20;90.10
39925;DHT22;25592;49.986;11.618;2023-08-24T07:37:48;23.30;89.80
39925;DHT22;25592;49.986;11.618;2023-08-24T07:40:34;23.50;88.90
39925;DHT22;25592;49.986;11.618;2023-08-24T07:43:19;23.60;88.40
39925;DHT22;25592;49.986;11.618;2023-08-24T07:46:05;23.80;88.40
39925;DHT22;25592;49.986;11.618;2023-08-24T07:48:53;23.70;88.60
39925;DHT22;25592;49.986;11.618;2023-08-24T07:51:39;23.70;88.60
39925;DHT22;25592;49.986;11.618;2023-08-24T07:54:25;23.80;89.20
39925;DHT22;25592;49.986;11.618;2023-08-24T07:57:10;24.00;88.90
39925;DHT22;25592;49.986;11.618;2023-08-24T07:59:55;24.00;89.00
39925;DHT22;25592;49.986;11.618;2023-08-24T08:02:41;24.10;88.20
39925;DHT22;25592;49.986;11.618;2023-08-24T08:05:26;24.20;87.80
39925;DHT22;25592;49.986;11.618;2023-08-24T08:08:13;24.30;88.00
39925;DHT22;25592;49.986;11.618;2023-08-24T08:11:01;24.40;87.70
39925;DHT22;25592;49.986;11.618;2023-08-24T08:13:46;24.50;87.40
39925;DHT22;25592;49.986;11.618;2023-08-24T08:16:32;24.70;87.60
39925;DHT22;25592;49.986;11.618;2023-08-24T08:19:17;24.70;87.30
39925;DHT22;25592;49.986;11.618;2023-08-24T08:22:05;24.80;87.70
39925;DHT22;25592;49.986;11.618;2023-08-24T08:24:54;24.80;87.20
39925;DHT22;25592;49.986;11.618;2023-08-24T08:27:41;25.00;86.40
39925;DHT22;25592;49.986;11.618;2023-08-24T08:30:27;25.10;86.90
39925;DHT22;25592;49.986;11.618;2023-08-24T08:33:12;25.20;87.40
39925;DHT22;25592;49.986;11.618;2023-08-24T08:35:58;25.30;86.90
39925;DHT22;25592;49.986;11.618;2023-08-24T08:38:43;25.50;86.20
39925;DHT22;25592;49.986;11.618;2023-08-24T08:41:42;25.50;86.40
39925;DHT22;25592;49.986;11.618;2023-08-24T08:44:30;25.70;87.10
39925;DHT22;25592;49.986;11.618;2023-08-24T08:47:17;25.90;84.80
39925;DHT22;25592;49.986;11.618;2023-08-24T08:50:04;25.90;85.50
39925;DHT22;25592;49.986;11.618;2023-08-24T08:52:49;26.00;84.00
39925;DHT22;25592;49.986;11.618;2023-08-24T08:55:35;26.00;84.40
39925;DHT22;25592;49.986;11.618;2023-08-24T08:58:21;26.00;83.90
39925;DHT22;25592;49.986;11.618;2023-08-24T09:01:07;26.30;84.90
39925;DHT22;25592;49.986;11.618;2023-08-24T09:03:53;26.60;84.30
39925;DHT22;25592;49.986;11.618;2023-08-24T09:06:39;26.60;82.70
39925;DHT22;25592;49.986;11.618;2023-08-24T09:09:26;26.70;82.70
39925;DHT22;25592;49.986;11.618;2023-08-24T09:12:11;26.80;81.20
39925;DHT22;25592;49.986;11.618;2023-08-24T09:14:57;27.00;80.20
39925;DHT22;25592;49.986;11.618;2023-08-24T09:17:43;26.90;80.10
39925;DHT22;25592;49.986;11.618;2023-08-24T09:20:29;27.10;79.40
39925;DHT22;25592;49.986;11.618;2023-08-24T09:23:18;27.40;78.10
39925;DHT22;25592;49.986;11.618;2023-08-24T09:26:05;27.60;78.10
39925;DHT22;25592;49.986;11.618;2023-08-24T09:28:50;27.90;77.30
39925;DHT22;25592;49.986;11.618;2023-08-24T09:31:36;28.10;76.50
39925;DHT22;25592;49.986;11.618;2023-08-24T09:34:24;28.30;77.30
39925;DHT22;25592;49.986;11.618;2023-08-24T09:37:14;28.60;76.40
39925;DHT22;25592;49.986;11.618;2023-08-24T09:40:02;28.70;75.80
39925;DHT22;25592;49.986;11.618;2023-08-24T09:42:52;28.60;75.20
39925;DHT22;25592;49.986;11.618;2023-08-24T09:45:37;28.30;74.30
39925;DHT22;25592;49.986;11.618;2023-08-24T09:48:23;28.40;75.30
39925;DHT22;25592;49.986;11.618;2023-08-24T09:51:13;28.40;75.50
39925;DHT22;25592;49.986;11.618;2023-08-24T09:54:03;28.70;75.80
39925;DHT22;25592;49.986;11.618;2023-08-24T09:56:51;28.50;75.30
39925;DHT22;25592;49.986;11.618;2023-08-24T09:59:39;28.80;77.70
39925;DHT22;25592;49.986;11.618;2023-08-24T10:02:30;29.10;77.10
39925;DHT22;25592;49.986;11.618;2023-08-24T10:05:20;29.30;76.30
39925;DHT22;25592;49.986;11.618;2023-08-24T10:08:29;29.70;73.00
39925;DHT22;25592;49.986;11.618;2023-08-24T10:11:18;29.60;71.40
39925;DHT22;25592;49.986;11.618;2023-08-24T10:17:16;29.20;73.30
39925;DHT22;25592;49.986;11.618;2023-08-24T10:20:02;29.40;72.10
39925;DHT22;25592;49.986;11.618;2023-08-24T10:22:50;29.50;73.10
39925;DHT22;25592;49.986;11.618;2023-08-24T10:25:37;29.90;72.40
39925;DHT22;25592;49.986;11.618;2023-08-24T10:28:24;30.00;72.10
39925;DHT22;25592;49.986;11.618;2023-08-24T10:31:10;30.10;69.50
39925;DHT22;25592;49.986;11.618;2023-08-24T10:33:56;29.90;69.10
39925;DHT22;25592;49.986;11.618;2023-08-24T10:36:42;29.80;67.90
39925;DHT22;25592;49.986;11.618;2023-08-24T10:39:28;29.80;68.70
39925;DHT22;25592;49.986;11.618;2023-08-24T10:42:14;30.00;69.30
39925;DHT22;25592;49.986;11.618;2023-08-24T10:45:00;30.30;69.70
39925;DHT22;25592;49.986;11.618;2023-08-24T10:47:47;30.40;69.40
39925;DHT22;25592;49.986;11.618;2023-08-24T10:50:37;30.30;69.80
39925;DHT22;25592;49.986;11.618;2023-08-24T10:53:38;30.00;70.40
39925;DHT22;25592;49.986;11.618;2023-08-24T10:56:37;29.90;71.20
39925;DHT22;25592;49.986;11.618;2023-08-24T10:59:24;30.20;71.30
39925;DHT22;25592;49.986;11.618;2023-08-24T11:02:19;30.30;70.50
39925;DHT22;25592;49.986;11.618;2023-08-24T11:05:06;30.50;69.80
39925;DHT22;25592;49.986;11.618;2023-08-24T11:13:27;30.40;68.70
39925;DHT22;25592;49.986;11.618;2023-08-24T11:16:40;30.50;68.90
39925;DHT22;25592;49.986;11.618;2023-08-24T11:19:26;30.90;69.60
39925;DHT22;25592;49.986;11.618;2023-08-24T11:22:11;31.20;69.60
39925;DHT22;25592;49.986;11.618;2023-08-24T11:24:58;31.50;68.00
39925;DHT22;25592;49.986;11.618;2023-08-24T11:27:44;31.40;68.10
39925;DHT22;25592;49.986;11.618;2023-08-24T11:30:32;31.10;66.60
39925;DHT22;25592;49.986;11.618;2023-08-24T11:33:32;31.30;66.90
39925;DHT22;25592;49.986;11.618;2023-08-24T11:36:18;31.60;66.70
39925;DHT22;25592;49.986;11.618;2023-08-24T11:39:03;31.70;65.50
39925;DHT22;25592;49.986;11.618;2023-08-24T11:42:02;31.70;65.10
39925;DHT22;25592;49.986;11.618;2023-08-24T11:44:48;31.80;64.60
39925;DHT22;25592;49.986;11.618;2023-08-24T11:47:34;32.20;64.30
39925;DHT22;25592;49.986;11.618;2023-08-24T11:50:20;32.10;64.20
39925;DHT22;25592;49.986;11.618;2023-08-24T11:53:07;32.30;65.40
39925;DHT22;25592;49.986;11.618;2023-08-24T11:55:53;32.40;65.10
39925;DHT22;25592;49.986;11.618;2023-08-24T11:58:50;32.60;65.60
39925;DHT22;25592;49.986;11.618;2023-08-24T12:01:39;32.70;64.10
39925;DHT22;25592;49.986;11.618;2023-08-24T12:04:25;32.80;64.30
39925;DHT22;25592;49.986;11.618;2023-08-24T12:07:14;33.10;62.70
39925;DHT22;25592;49.986;11.618;2023-08-24T12:10:01;33.10;62.40
39925;DHT22;25592;49.986;11.618;2023-08-24T12:12:47;33.20;61.30
39925;DHT22;25592;49.986;11.618;2023-08-24T12:15:34;33.30;61.40
39925;DHT22;25592;49.986;11.618;2023-08-24T12:18:21;33.10;59.90
39925;DHT22;25592;49.986;11.618;2023-08-24T12:21:06;33.10;59.20
39925;DHT22;25592;49.986;11.618;2023-08-24T12:26:55;33.00;59.10
39925;DHT22;25592;49.986;11.618;2023-08-24T12:29:46;32.70;59.10
39925;DHT22;25592;49.986;11.618;2023-08-24T12:32:45;32.80;57.30
39925;DHT22;25592;49.986;11.618;2023-08-24T12:35:31;32.80;56.30
39925;DHT22;25592;49.986;11.618;2023-08-24T12:38:16;32.70;56.80
39925;DHT22;25592;49.986;11.618;2023-08-24T12:41:02;32.70;56.70
39925;DHT22;25592;49.986;11.618;2023-08-24T12:43:47;32.60;57.80
39925;DHT22;25592;49.986;11.618;2023-08-24T12:46:34;32.80;58.70
39925;DHT22;25592;49.986;11.618;2023-08-24T12:49:20;33.00;58.70
39925;DHT22;25592;49.986;11.618;2023-08-24T12:52:05;33.10;59.30
39925;DHT22;25592;49.986;11.618;2023-08-24T12:54:51;33.10;60.20
39925;DHT22;25592;49.986;11.618;2023-08-24T12:57:36;33.20;61.90
39925;DHT22;25592;49.986;11.618;2023-08-24T13:00:22;33.20;62.00
39925;DHT22;25592;49.986;11.618;2023-08-24T13:03:07;33.30;63.80
39925;DHT22;25592;49.986;11.618;2023-08-24T13:05:53;33.40;63.00
39925;DHT22;25592;49.986;11.618;2023-08-24T13:08:44;33.50;62.90
39925;DHT22;25592;49.986;11.618;2023-08-24T13:11:30;33.70;62.70
39925;DHT22;25592;49.986;11.618;2023-08-24T13:14:16;33.90;63.10
39925;DHT22;25592;49.986;11.618;2023-08-24T13:17:01;34.10;63.20
39925;DHT22;25592;49.986;11.618;2023-08-24T13:19:46;34.00;61.80
39925;DHT22;25592;49.986;11.618;2023-08-24T13:22:34;34.20;63.30
39925;DHT22;25592;49.986;11.618;2023-08-24T13:25:19;33.90;63.20
39925;DHT22;25592;49.986;11.618;2023-08-24T13:28:05;34.20;62.20
39925;DHT22;25592;49.986;11.618;2023-08-24T13:30:50;34.00;62.50
39925;DHT22;25592;49.986;11.618;2023-08-24T13:33:36;33.50;62.00
39925;DHT22;25592;49.986;11.618;2023-08-24T13:36:21;33.00;62.00
39925;DHT22;25592;49.986;11.618;2023-08-24T13:39:07;33.00;61.90
39925;DHT22;25592;49.986;11.618;2023-08-24T13:41:52;33.00;61.30
39925;DHT22;25592;49.986;11.618;2023-08-24T13:44:38;32.90;60.80
39925;DHT22;25592;49.986;11.618;2023-08-24T13:47:23;32.80;60.00
39925;DHT22;25592;49.986;11.618;2023-08-24T13:50:09;32.90;59.80
39925;DHT22;25592;49.986;11.618;2023-08-24T13:52:55;32.90;59.50
39925;DHT22;25592;49.986;11.618;2023-08-24T13:55:41;33.20;57.50
39925;DHT22;25592;49.986;11.618;2023-08-24T13:58:26;33.60;59.00
39925;DHT22;25592;49.986;11.618;2023-08-24T14:01:12;33.50;58.20
39925;DHT22;25592;49.986;11.618;2023-08-24T14:03:58;33.60;58.50
39925;DHT22;25592;49.986;11.618;2023-08-24T14:06:44;33.70;58.40
39925;DHT22;25592;49.986;11.618;2023-08-24T14:09:29;33.70;57.60
39925;DHT22;25592;49.986;11.618;2023-08-24T14:12:15;33.70;58.00
39925;DHT22;25592;49.986;11.618;2023-08-24T14:15:01;33.70;57.60
39925;DHT22;25592;49.986;11.618;2023-08-24T14:17:46;33.70;57.20
39925;DHT22;25592;49.986;11.618;2023-08-24T14:20:32;33.70;57.70
39925;DHT22;25592;49.986;11.618;2023-08-24T14:23:18;34.10;58.40
39925;DHT22;25592;49.986;11.618;2023-08-24T14:26:03;34.20;58.80
39925;DHT22;25592;49.986;11.618;2023-08-24T14:28:54;34.40;57.00
39925;DHT22;25592;49.986;11.618;2023-08-24T14:31:40;34.20;56.40
39925;DHT22;25592;49.986;11.618;2023-08-24T14:34:25;34.20;56.60
39925;DHT22;25592;49.986;11.618;2023-08-24T14:37:11;34.30;56.90
39925;DHT22;25592;49.986;11.618;2023-08-24T14:39:56;34.10;56.90
39925;DHT22;25592;49.986;11.618;2023-08-24T14:42:42;34.00;57.40
39925;DHT22;25592;49.986;11.618;2023-08-24T14:45:27;34.00;56.80
39925;DHT22;25592;49.986;11.618;2023-08-24T14:48:13;33.90;57.70
39925;DHT22;25592;49.986;11.618;2023-08-24T14:50:59;33.90;57.10
39925;DHT22;25592;49.986;11.618;2023-08-24T14:53:45;33.80;56.10
39925;DHT22;25592;49.986;11.618;2023-08-24T14:56:30;33.70;57.30
39925;DHT22;25592;49.986;11.618;2023-08-24T14:59:15;33.90;57.30
39925;DHT22;25592;49.986;11.618;2023-08-24T15:02:02;33.60;56.60
39925;DHT22;25592;49.986;11.618;2023-08-24T15:04:48;33.30;55.30
39925;DHT22;25592;49.986;11.618;2023-08-24T15:07:33;32.90;55.90
39925;DHT22;25592;49.986;11.618;2023-08-24T15:10:19;32.80;56.20
39925;DHT22;25592;49.986;11.618;2023-08-24T15:13:05;32.80;56.40
39925;DHT22;25592;49.986;11.618;2023-08-24T15:15:53;32.70;56.80
39925;DHT22;25592;49.986;11.618;2023-08-24T15:18:39;32.90;56.20
39925;DHT22;25592;49.986;11.618;2023-08-24T15:21:24;32.90;57.30
39925;DHT22;25592;49.986;11.618;2023-08-24T15:24:10;33.00;57.10
39925;DHT22;25592;49.986;11.618;2023-08-24T15:26:55;32.80;57.20
39925;DHT22;25592;49.986;11.618;2023-08-24T15:29:41;32.60;56.40
39925;DHT22;25592;49.986;11.618;2023-08-24T15:32:26;32.60;57.80
39925;DHT22;25592;49.986;11.618;2023-08-24T15:35:12;32.60;57.30
39925;DHT22;25592;49.986;11.618;2023-08-24T15:37:57;32.50;58.40
39925;DHT22;25592;49.986;11.618;2023-08-24T15:40:52;32.40;59.50
39925;DHT22;25592;49.986;11.618;2023-08-24T15:43:38;32.50;61.40
39925;DHT22;25592;49.986;11.618;2023-08-24T15:46:24;32.60;61.10
39925;DHT22;25592;49.986;11.618;2023-08-24T15:49:09;32.60;63.60
39925;DHT22;25592;49.986;11.618;2023-08-24T15:51:55;32.80;64.40
39925;DHT22;25592;49.986;11.618;2023-08-24T15:54:40;32.80;64.20
39925;DHT22;25592;49.986;11.618;2023-08-24T15:57:26;32.90;59.00
39925;DHT22;25592;49.986;11.618;2023-08-24T16:00:12;32.80;58.50
39925;DHT22;25592;49.986;11.618;2023-08-24T16:02:58;32.80;59.70
39925;DHT22;25592;49.986;11.618;2023-08-24T16:05:43;32.60;58.20
39925;DHT22;25592;49.986;11.618;2023-08-24T16:08:28;32.60;60.80
39925;DHT22;25592;49.986;11.618;2023-08-24T16:11:14;32.80;62.40
39925;DHT22;25592;49.986;11.618;2023-08-24T16:14:03;32.80;63.20
39925;DHT22;25592;49.986;11.618;2023-08-24T16:16:49;32.90;64.50
39925;DHT22;25592;49.986;11.618;2023-08-24T16:19:34;32.80;64.30
39925;DHT22;25592;49.986;11.618;2023-08-24T16:22:20;32.80;65.00
39925;DHT22;25592;49.986;11.618;2023-08-24T16:25:06;32.70;66.30
39925;DHT22;25592;49.986;11.618;2023-08-24T16:27:52;32.70;66.60
39925;DHT22;25592;49.986;11.618;2023-08-24T16:30:38;32.60;66.10
39925;DHT22;25592;49.986;11.618;2023-08-24T16:33:23;32.60;68.10
39925;DHT22;25592;49.986;11.618;2023-08-24T16:36:09;32.50;68.30
39925;DHT22;25592;49.986;11.618;2023-08-24T16:38:55;32.50;68.10
39925;DHT22;25592;49.986;11.618;2023-08-24T16:41:40;32.50;65.20
39925;DHT22;25592;49.986;11.618;2023-08-24T16:44:26;32.50;64.70
39925;DHT22;25592;49.986;11.618;2023-08-24T16:47:11;32.50;67.50
39925;DHT22;25592;49.986;11.618;2023-08-24T16:49:57;32.50;69.30
39925;DHT22;25592;49.986;11.618;2023-08-24T16:52:42;32.40;68.60
39925;DHT22;25592;49.986;11.618;2023-08-24T16:55:28;32.30;68.50
39925;DHT22;25592;49.986;11.618;2023-08-24T16:58:13;32.20;72.40
39925;DHT22;25592;49.986;11.618;2023-08-24T17:01:10;32.10;74.40
39925;DHT22;25592;49.986;11.618;2023-08-24T17:03:55;31.80;73.90
39925;DHT22;25592;49.986;11.618;2023-08-24T17:06:41;31.70;73.70
39925;DHT22;25592;49.986;11.618;2023-08-24T17:09:26;31.60;74.60
39925;DHT22;25592;49.986;11.618;2023-08-24T17:12:12;31.30;74.50
39925;DHT22;25592;49.986;11.618;2023-08-24T17:14:57;31.10;73.40
39925;DHT22;25592;49.986;11.618;2023-08-24T17:17:43;30.90;74.40
39925;DHT22;25592;49.986;11.618;2023-08-24T17:20:28;30.80;75.00
39925;DHT22;25592;49.986;11.618;2023-08-24T17:23:14;30.70;74.70
39925;DHT22;25592;49.986;11.618;2023-08-24T17:25:59;30.50;74.70